Terminal Aerodrome Forecast
Issued by NWS

Home | Current Version | Previous Version | Text Only | Print | Product List | Glossary On
Versions: 1 2 3 4 5 6 7 8 9 10 11 12 13 14 15 16 17 18 19 20 21 22 23 24 25 26
000
FTUS43 KLOT 302102 AAA
TAFMDW
TAF AMD
KMDW 302102Z 3021/0118 05013G21KT 4SM -SHRA BR OVC005
     FM010000 09011KT 6SM -SHRA BR OVC007
      TEMPO 0101/0104 3SM TSRA OVC008CB
     FM010500 18010KT P6SM SCT010 OVC020
     FM011500 21019G32KT P6SM OVC020=

USA.gov is the U.S. government's official web portal to all federal, state and local government web resources and services.